Aviation Digital Data Service (ADDS)

Output produced by TAFs form (0440 UTC 28 July 2017)
found at http://www.aviationweather.gov/adds/tafs/
 
METAR text: RJTI 280400Z 15006KT 9999 FEW015 BKN030 BKN/// 29/25 Q1008
Conditions at: RJTI (TOKYO HELIPORT , JP) observed 0400 UTC 28 July 2017
Temperature: 29.0°C (84°F)
Dewpoint: 25.0°C (77°F) [RH = 79%]
Pressure (altimeter): 29.76 inches Hg (1008.0 mb)
Winds: from the SSE (150 degrees) at 7 MPH (6 knots; 3.1 m/s)
Visibility: 6 or more miles (10+ km)
Ceiling: 3000 feet AGL
Clouds: few clouds at 1500 feet AGL
broken clouds at 3000 feet AGL
Weather: no significant weather observed at this time